Time;durP1;ratioP1;P1;durP2;ratioP2;P2;SDS_P1;SDS_P2;PMS_P1;PMS_P2;Temp;Humidity;BMP_temperature;BMP_pressure;BME280_temperature;BME280_humidity;BME280_pressure;Samples;Min_cycle;Max_cycle;Signal;HPM_P1;HPM_P2
2022/11/28 00:01:20;;;;;;;20.67;12.83;;;7.50;99.90;;;;;;5040086;28;20744;-69
2022/11/28 00:03:47;;;;;;;21.23;12.43;;;7.40;99.90;;;;;;5043021;28;20315;-68
2022/11/28 00:06:15;;;;;;;20.60;12.13;;;7.50;99.90;;;;;;5039055;28;20215;-70
2022/11/28 00:08:42;;;;;;;20.53;11.80;;;7.50;99.90;;;;;;5042446;28;20259;-69
2022/11/28 00:11:10;;;;;;;18.00;11.03;;;7.50;99.90;;;;;;5045669;28;20759;-69
2022/11/28 00:13:37;;;;;;;19.40;11.17;;;7.50;99.90;;;;;;5037345;28;20237;-70
2022/11/28 00:16:05;;;;;;;20.67;12.23;;;7.50;99.90;;;;;;5040173;28;20209;-69
2022/11/28 00:18:33;;;;;;;20.17;11.37;;;7.50;99.90;;;;;;5043427;28;20216;-68
2022/11/28 00:21:05;;;;;;;21.77;12.47;;;7.50;99.90;;;;;;5040519;28;20260;-70
2022/11/28 00:23:32;;;;;;;23.33;12.67;;;7.50;99.90;;;;;;5043857;28;20272;-69
2022/11/28 00:26:06;;;;;;;19.97;11.47;;;7.40;99.90;;;;;;5038211;28;20200;-69
2022/11/28 00:28:33;;;;;;;18.57;11.77;;;7.50;99.90;;;;;;5035346;28;20225;-69
2022/11/28 00:31:00;;;;;;;20.23;12.17;;;7.50;99.90;;;;;;5040957;28;20659;-68
2022/11/28 00:33:27;;;;;;;22.67;12.20;;;7.60;99.90;;;;;;5018724;28;20215;-70
2022/11/28 00:36:01;;;;;;;17.80;11.63;;;7.50;99.90;;;;;;5043033;28;20211;-69
2022/11/28 00:38:29;;;;;;;17.70;11.13;;;7.60;99.90;;;;;;5038587;28;20224;-69
2022/11/28 00:41:17;;;;;;;21.40;12.10;;;7.60;99.90;;;;;;5037199;28;20630;-70
2022/11/28 00:43:45;;;;;;;20.80;11.57;;;7.60;99.90;;;;;;5040830;28;20624;-70
2022/11/28 00:46:14;;;;;;;18.70;11.87;;;7.60;99.90;;;;;;5041652;28;20298;-69
2022/11/28 00:48:41;;;;;;;20.23;11.80;;;7.60;99.90;;;;;;5042065;28;20213;-69
2022/11/28 00:51:14;;;;;;;18.93;11.83;;;7.60;99.90;;;;;;5038996;28;20280;-69
2022/11/28 00:53:43;;;;;;;17.50;12.20;;;7.60;99.90;;;;;;5025303;28;20262;-70
2022/11/28 00:56:12;;;;;;;20.13;12.53;;;7.60;99.90;;;;;;5036646;28;20314;-70
2022/11/28 00:58:40;;;;;;;24.10;12.47;;;7.60;99.90;;;;;;5036780;28;20639;-68
2022/11/28 01:01:11;;;;;;;20.37;12.60;;;7.60;99.90;;;;;;5038345;28;20673;-68
2022/11/28 01:03:38;;;;;;;21.63;11.93;;;7.60;99.90;;;;;;5025585;28;20662;-69
2022/11/28 01:06:06;;;;;;;20.07;11.77;;;7.60;99.90;;;;;;5039976;28;20205;-69
2022/11/28 01:08:33;;;;;;;18.97;11.57;;;7.60;99.90;;;;;;5039772;28;20206;-70
2022/11/28 01:11:01;;;;;;;19.57;12.17;;;7.60;99.90;;;;;;5037125;28;20656;-70
2022/11/28 01:13:27;;;;;;;21.60;12.73;;;7.60;99.90;;;;;;5028193;28;20707;-69
2022/11/28 01:15:54;;;;;;;21.10;12.50;;;7.70;99.90;;;;;;5029470;28;20215;-69
2022/11/28 01:18:21;;;;;;;21.47;12.37;;;7.60;99.90;;;;;;5038712;28;20198;-69
2022/11/28 01:20:48;;;;;;;21.33;13.90;;;7.60;99.90;;;;;;5027208;28;20204;-68
2022/11/28 01:23:17;;;;;;;20.03;12.33;;;7.60;99.90;;;;;;5039795;28;20381;-69
2022/11/28 01:25:44;;;;;;;22.53;13.10;;;7.60;99.90;;;;;;5039450;28;20272;-70
2022/11/28 01:28:10;;;;;;;21.20;12.53;;;7.60;99.90;;;;;;5040520;28;20217;-70
2022/11/28 01:30:37;;;;;;;26.03;13.90;;;7.60;99.90;;;;;;5040420;28;20259;-69
2022/11/28 01:33:04;;;;;;;23.40;13.73;;;7.70;99.90;;;;;;5027690;28;20288;-69
2022/11/28 01:35:30;;;;;;;27.10;14.40;;;7.70;99.90;;;;;;5040322;28;20561;-69
2022/11/28 01:37:57;;;;;;;27.67;14.67;;;7.70;99.90;;;;;;5039516;28;20238;-68
2022/11/28 01:40:24;;;;;;;25.33;13.97;;;7.70;99.90;;;;;;5034878;28;20216;-69
2022/11/28 01:42:51;;;;;;;24.03;13.77;;;7.70;99.90;;;;;;5025189;28;20333;-70
2022/11/28 01:45:30;;;;;;;33.20;16.13;;;7.70;99.90;;;;;;5037149;28;20255;-69
2022/11/28 01:48:01;;;;;;;24.43;13.77;;;7.70;99.90;;;;;;5037566;28;20340;-68
2022/11/28 01:50:31;;;;;;;27.13;14.37;;;7.70;99.90;;;;;;5038475;28;20201;-69
2022/11/28 01:53:03;;;;;;;25.60;15.23;;;7.70;99.90;;;;;;5041305;28;20228;-70
2022/11/28 01:55:37;;;;;;;25.93;14.80;;;7.70;99.90;;;;;;5035088;28;20231;-69
2022/11/28 01:58:05;;;;;;;22.67;14.40;;;7.70;99.90;;;;;;5038483;28;20339;-69
2022/11/28 02:00:33;;;;;;;27.60;14.70;;;7.70;99.90;;;;;;5041107;28;20209;-70
2022/11/28 02:03:13;;;;;;;31.93;16.30;;;7.90;99.90;;;;;;5040327;28;20230;-70
2022/11/28 02:05:40;;;;;;;26.73;15.90;;;7.70;99.90;;;;;;5036142;28;20640;-68
2022/11/28 02:08:08;;;;;;;27.10;16.07;;;7.80;99.90;;;;;;5024378;28;20201;-69
2022/11/28 02:10:45;;;;;;;29.97;15.10;;;7.80;99.90;;;;;;5040671;28;20286;-69
2022/11/28 02:13:37;;;;;;;27.63;15.37;;;7.80;99.90;;;;;;5039124;28;20698;-68
2022/11/28 02:16:35;;;;;;;28.03;15.23;;;7.80;99.90;;;;;;5040725;28;20205;-69
2022/11/28 02:19:23;;;;;;;23.70;14.00;;;7.80;99.90;;;;;;5034196;28;20284;-69
2022/11/28 02:21:50;;;;;;;25.00;14.20;;;7.80;99.90;;;;;;5037771;28;20251;-69
2022/11/28 02:24:36;;;;;;;27.03;15.27;;;7.80;99.90;;;;;;5041105;28;20213;-69
2022/11/28 02:27:31;;;;;;;27.60;14.63;;;7.90;99.90;;;;;;5038866;28;20241;-69
2022/11/28 02:30:35;;;;;;;28.17;14.33;;;7.90;99.90;;;;;;5029093;28;20714;-70
2022/11/28 02:33:13;;;;;;;24.23;14.43;;;7.90;99.90;;;;;;5039603;28;20656;-68
2022/11/28 02:36:09;;;;;;;30.83;14.90;;;7.90;99.90;;;;;;5020427;28;20698;-69
2022/11/28 02:38:56;;;;;;;29.97;15.53;;;7.90;99.90;;;;;;5027007;28;20241;-69
2022/11/28 02:41:38;;;;;;;24.27;13.40;;;7.90;99.90;;;;;;5034622;28;20313;-69
2022/11/28 02:44:17;;;;;;;23.30;12.90;;;7.90;99.90;;;;;;5046903;28;20207;-69
2022/11/28 02:47:01;;;;;;;32.50;14.60;;;7.90;99.90;;;;;;5045692;28;20201;-69
2022/11/28 02:49:46;;;;;;;28.77;15.30;;;8.00;99.90;;;;;;5037463;28;20198;-70
2022/11/28 02:52:22;;;;;;;22.70;13.07;;;8.00;99.90;;;;;;5048187;28;20504;-69
2022/11/28 02:54:50;;;;;;;23.77;12.60;;;8.00;99.90;;;;;;5039959;28;20692;-68
2022/11/28 02:57:17;;;;;;;22.60;13.67;;;8.00;99.90;;;;;;5043780;28;20734;-68
2022/11/28 02:59:47;;;;;;;22.57;12.60;;;8.00;99.90;;;;;;5044270;28;20218;-68
2022/11/28 03:02:14;;;;;;;24.43;12.80;;;8.00;99.90;;;;;;5045562;28;20273;-68
2022/11/28 03:04:50;;;;;;;25.00;13.80;;;8.00;99.90;;;;;;5040326;28;20274;-69
2022/11/28 03:07:52;;;;;;;21.30;12.77;;;8.00;99.90;;;;;;5042176;28;20209;-68
2022/11/28 03:10:31;;;;;;;21.73;12.20;;;8.00;99.90;;;;;;5044714;28;20715;-68
2022/11/28 03:13:07;;;;;;;20.73;12.83;;;8.00;99.90;;;;;;5037354;28;20273;-69
2022/11/28 03:15:48;;;;;;;23.13;12.90;;;8.00;99.90;;;;;;5041429;28;20260;-69
2022/11/28 03:18:42;;;;;;;21.17;11.80;;;8.00;99.90;;;;;;5043895;28;20240;-69
2022/11/28 03:21:16;;;;;;;24.47;13.43;;;8.10;99.90;;;;;;5037124;28;20326;-69
2022/11/28 03:23:50;;;;;;;20.70;12.27;;;8.10;99.90;;;;;;5046640;28;20323;-69
2022/11/28 03:26:29;;;;;;;22.60;12.50;;;8.10;99.90;;;;;;5043909;28;20646;-69
2022/11/28 03:29:15;;;;;;;22.17;13.03;;;8.10;99.90;;;;;;5040816;28;20220;-68
2022/11/28 03:31:48;;;;;;;24.00;12.70;;;8.20;99.90;;;;;;5042476;28;20266;-68
2022/11/28 03:34:19;;;;;;;23.80;13.50;;;8.20;99.90;;;;;;5042524;28;20198;-69
2022/11/28 03:36:54;;;;;;;22.40;12.87;;;8.20;99.90;;;;;;5039938;28;20279;-69
2022/11/28 03:39:27;;;;;;;23.37;13.17;;;8.20;99.90;;;;;;5040386;28;20746;-69
2022/11/28 03:42:17;;;;;;;21.60;13.50;;;8.20;99.90;;;;;;5037250;28;20329;-69
2022/11/28 03:45:00;;;;;;;24.33;13.70;;;8.20;99.90;;;;;;5039893;28;20209;-68
2022/11/28 03:47:43;;;;;;;22.97;13.73;;;8.20;99.90;;;;;;5036791;28;20211;-69
2022/11/28 03:50:24;;;;;;;21.13;13.13;;;8.20;99.90;;;;;;5042824;28;20310;-69
2022/11/28 03:53:02;;;;;;;20.30;13.40;;;8.20;99.90;;;;;;5043921;28;20196;-69
2022/11/28 03:55:47;;;;;;;18.80;12.77;;;8.20;99.90;;;;;;5037262;28;20570;-68
2022/11/28 03:58:33;;;;;;;20.37;12.60;;;8.30;99.90;;;;;;5035441;28;20238;-68
2022/11/28 04:01:27;;;;;;;21.53;13.03;;;8.30;99.90;;;;;;5040352;28;20304;-69
2022/11/28 04:03:54;;;;;;;23.70;13.07;;;8.30;99.90;;;;;;5035120;28;20710;-68
2022/11/28 04:06:28;;;;;;;21.43;12.87;;;8.30;99.90;;;;;;5041892;28;20207;-68
2022/11/28 04:09:02;;;;;;;19.87;12.57;;;8.30;99.90;;;;;;5038666;28;20300;-68
2022/11/28 04:11:53;;;;;;;22.40;12.87;;;8.30;99.90;;;;;;5037269;28;20229;-69
2022/11/28 04:14:31;;;;;;;19.03;12.43;;;8.30;99.90;;;;;;5042728;28;20753;-68
2022/11/28 04:17:05;;;;;;;17.90;11.40;;;8.30;99.90;;;;;;5024221;28;20718;-69
2022/11/28 04:20:12;;;;;;;20.53;11.43;;;8.40;99.90;;;;;;5041965;28;20232;-68
2022/11/28 04:22:50;;;;;;;17.27;11.60;;;8.40;99.90;;;;;;5041041;28;20338;-68
2022/11/28 04:25:21;;;;;;;19.10;11.63;;;8.40;99.90;;;;;;5043084;28;20293;-70
2022/11/28 04:27:53;;;;;;;17.97;11.40;;;8.40;99.90;;;;;;5052974;28;20386;-69
2022/11/28 04:30:20;;;;;;;17.47;11.77;;;8.40;99.90;;;;;;5035044;28;20300;-68
2022/11/28 04:32:53;;;;;;;17.20;11.20;;;8.40;99.90;;;;;;5036714;28;20212;-69
2022/11/28 04:35:26;;;;;;;19.10;11.97;;;8.50;99.90;;;;;;5041188;28;20300;-68
2022/11/28 04:37:54;;;;;;;19.37;11.73;;;8.40;99.90;;;;;;5038963;28;20227;-68
2022/11/28 04:40:24;;;;;;;18.97;11.27;;;8.40;99.90;;;;;;5029735;28;20303;-69
2022/11/28 04:42:55;;;;;;;21.63;12.13;;;8.40;99.90;;;;;;5040046;28;20278;-68
2022/11/28 04:45:36;;;;;;;20.90;11.87;;;8.40;99.90;;;;;;5040607;28;20238;-70
2022/11/28 04:48:04;;;;;;;21.97;13.17;;;8.40;99.90;;;;;;5043144;28;20230;-69
2022/11/28 04:50:41;;;;;;;20.70;12.63;;;8.50;99.90;;;;;;5029013;28;20207;-69
2022/11/28 04:53:27;;;;;;;21.53;12.87;;;8.50;99.90;;;;;;5038420;28;20298;-69
2022/11/28 04:56:05;;;;;;;20.90;12.83;;;8.50;99.90;;;;;;5036371;28;20204;-70
2022/11/28 04:58:45;;;;;;;19.80;12.67;;;8.50;99.90;;;;;;5029467;28;20281;-68
2022/11/28 05:01:19;;;;;;;20.07;12.83;;;8.40;99.90;;;;;;5030354;28;20248;-69
2022/11/28 05:03:46;;;;;;;20.00;12.17;;;8.40;99.90;;;;;;5051022;28;20309;-68
2022/11/28 05:06:24;;;;;;;25.60;14.37;;;8.40;99.90;;;;;;5041529;28;20288;-70
2022/11/28 05:08:50;;;;;;;22.00;12.77;;;8.50;99.90;;;;;;5035222;28;20239;-69
2022/11/28 05:11:17;;;;;;;23.30;13.40;;;8.40;99.90;;;;;;5035928;28;20734;-69
2022/11/28 05:13:44;;;;;;;20.77;12.97;;;8.40;99.90;;;;;;5040944;28;20200;-69
2022/11/28 05:16:12;;;;;;;22.57;13.57;;;8.40;99.90;;;;;;5044964;28;20208;-70
2022/11/28 05:18:38;;;;;;;25.07;13.53;;;8.40;99.90;;;;;;5041216;28;20208;-68
2022/11/28 05:21:07;;;;;;;24.00;13.03;;;8.40;99.90;;;;;;5041444;28;20621;-69
2022/11/28 05:23:38;;;;;;;22.07;13.00;;;8.40;99.90;;;;;;5039756;28;20235;-69
2022/11/28 05:26:12;;;;;;;21.80;12.60;;;8.50;99.90;;;;;;5041276;28;20295;-69
2022/11/28 05:28:41;;;;;;;21.10;12.83;;;8.50;99.90;;;;;;5033859;28;20218;-70
2022/11/28 05:31:08;;;;;;;21.97;13.13;;;8.50;99.90;;;;;;5043317;28;20332;-68
2022/11/28 05:33:35;;;;;;;20.00;12.63;;;8.50;99.90;;;;;;5030864;28;20658;-68
2022/11/28 05:36:12;;;;;;;19.93;12.63;;;8.50;99.90;;;;;;5029025;28;20215;-70
2022/11/28 05:38:40;;;;;;;23.63;13.10;;;8.50;99.90;;;;;;5039050;28;20232;-68
2022/11/28 05:41:07;;;;;;;17.83;11.90;;;8.50;99.90;;;;;;5042266;28;20219;-69
2022/11/28 05:43:34;;;;;;;19.93;11.90;;;8.50;99.90;;;;;;5035737;28;20696;-68
2022/11/28 05:46:03;;;;;;;21.53;12.00;;;8.50;99.90;;;;;;5041856;28;20292;-69
2022/11/28 05:48:30;;;;;;;20.23;12.67;;;8.50;99.90;;;;;;5036939;28;20600;-69
2022/11/28 05:50:57;;;;;;;19.77;12.53;;;8.50;99.90;;;;;;5039362;28;20565;-68
2022/11/28 05:53:24;;;;;;;18.17;11.57;;;8.50;99.90;;;;;;5038881;28;20210;-68
2022/11/28 05:55:51;;;;;;;18.83;11.83;;;8.50;99.90;;;;;;5037137;28;20689;-69
2022/11/28 05:58:18;;;;;;;18.13;11.67;;;8.60;99.90;;;;;;5039404;28;20257;-69
2022/11/28 06:00:45;;;;;;;18.77;12.17;;;8.50;99.90;;;;;;5020916;28;20226;-69
2022/11/28 06:03:11;;;;;;;15.50;11.37;;;8.50;99.90;;;;;;5040678;28;20239;-68
2022/11/28 06:05:42;;;;;;;16.13;11.03;;;8.60;99.90;;;;;;5036321;28;20200;-69
2022/11/28 06:08:13;;;;;;;16.83;11.20;;;8.50;99.90;;;;;;5042197;28;21112;-68
2022/11/28 06:10:45;;;;;;;18.20;11.00;;;8.60;99.90;;;;;;5041023;28;20300;-68
2022/11/28 06:13:11;;;;;;;17.03;10.67;;;8.50;99.90;;;;;;5025435;28;20221;-69
2022/11/28 06:15:43;;;;;;;18.63;10.73;;;8.50;99.90;;;;;;5038594;28;20205;-69
2022/11/28 06:18:10;;;;;;;16.53;10.67;;;8.70;99.90;;;;;;5024030;28;20691;-68
2022/11/28 06:20:36;;;;;;;17.17;11.00;;;8.60;99.90;;;;;;5040205;28;20718;-69
2022/11/28 06:23:03;;;;;;;15.87;10.60;;;8.60;99.90;;;;;;5041534;28;20242;-68
2022/11/28 06:25:30;;;;;;;14.97;9.70;;;8.60;99.90;;;;;;5041096;28;20558;-68
2022/11/28 06:27:56;;;;;;;15.27;9.73;;;8.60;99.90;;;;;;5040868;28;20226;-69
2022/11/28 06:30:26;;;;;;;15.13;9.43;;;8.60;99.90;;;;;;5037522;28;20212;-69
2022/11/28 06:32:53;;;;;;;12.60;8.87;;;8.60;99.90;;;;;;5040577;28;20208;-69
2022/11/28 06:35:20;;;;;;;13.70;8.90;;;8.60;99.90;;;;;;5039597;28;20203;-69
2022/11/28 06:37:46;;;;;;;12.63;8.70;;;8.60;99.90;;;;;;5037356;28;20234;-69
2022/11/28 06:40:14;;;;;;;13.67;8.40;;;8.60;99.90;;;;;;5045207;28;20278;-69
2022/11/28 06:42:41;;;;;;;13.57;8.37;;;8.60;99.90;;;;;;5019399;28;20318;-69
2022/11/28 06:45:08;;;;;;;14.93;9.27;;;8.60;99.90;;;;;;5043201;28;20209;-69
2022/11/28 06:47:35;;;;;;;14.37;8.07;;;8.60;99.90;;;;;;5037134;28;20629;-69
2022/11/28 06:50:02;;;;;;;12.37;8.30;;;8.60;99.90;;;;;;5039858;28;20231;-69
2022/11/28 06:52:29;;;;;;;11.03;7.67;;;8.60;99.90;;;;;;5043339;28;20279;-69
2022/11/28 06:54:58;;;;;;;14.52;10.43;;;8.70;99.90;;;;;;5041611;28;20459;-69
2022/11/28 06:57:25;;;;;;;12.60;8.60;;;9.00;99.90;;;;;;5035358;28;20313;-69
2022/11/28 06:59:52;;;;;;;11.60;8.00;;;9.00;99.90;;;;;;5020461;28;20224;-69
2022/11/28 07:02:19;;;;;;;11.60;7.57;;;8.90;99.90;;;;;;5013807;28;20599;-69
2022/11/28 07:04:45;;;;;;;11.77;7.53;;;8.90;99.90;;;;;;5038088;28;20212;-69
2022/11/28 07:07:12;;;;;;;13.33;7.93;;;8.80;99.90;;;;;;5029625;28;20627;-69
2022/11/28 07:09:42;;;;;;;11.83;8.00;;;8.80;99.90;;;;;;5043133;28;20216;-67
2022/11/28 07:12:09;;;;;;;11.03;8.20;;;8.80;99.90;;;;;;5038100;28;20236;-69
2022/11/28 07:14:37;;;;;;;11.90;7.57;;;8.80;99.90;;;;;;5037978;28;20216;-69
2022/11/28 07:17:03;;;;;;;14.27;8.40;;;8.70;99.90;;;;;;5039154;28;20304;-69
2022/11/28 07:19:30;;;;;;;11.20;7.33;;;8.80;99.90;;;;;;5059729;28;20210;-68
2022/11/28 07:21:57;;;;;;;16.10;10.00;;;8.70;99.90;;;;;;5042709;28;20203;-70
2022/11/28 07:24:24;;;;;;;14.63;8.93;;;8.70;99.90;;;;;;5038286;28;20430;-69
2022/11/28 07:26:50;;;;;;;13.67;8.57;;;8.70;99.90;;;;;;5038346;28;20233;-69
2022/11/28 07:29:18;;;;;;;14.53;8.90;;;8.70;99.90;;;;;;5039560;28;20266;-69
2022/11/28 07:31:45;;;;;;;12.90;8.77;;;8.80;99.90;;;;;;5039899;28;20207;-68
2022/11/28 07:34:12;;;;;;;14.30;9.20;;;8.70;99.90;;;;;;5061041;28;20218;-67
2022/11/28 07:36:38;;;;;;;13.13;8.87;;;8.80;99.90;;;;;;5046180;28;20232;-68
2022/11/28 07:39:07;;;;;;;13.67;8.93;;;8.80;99.90;;;;;;5046769;28;20269;-67
2022/11/28 07:41:34;;;;;;;13.03;8.67;;;8.80;99.90;;;;;;5042246;28;20304;-68
2022/11/28 07:44:02;;;;;;;16.60;9.57;;;8.80;99.90;;;;;;5042376;28;20265;-67
2022/11/28 07:46:30;;;;;;;14.63;9.83;;;8.80;99.90;;;;;;5045225;28;20263;-68
2022/11/28 07:48:58;;;;;;;15.37;10.00;;;8.80;99.90;;;;;;5044947;28;20527;-67
2022/11/28 07:51:28;;;;;;;15.37;10.00;;;8.80;99.90;;;;;;5044584;28;20229;-68
2022/11/28 07:53:55;;;;;;;17.20;9.93;;;8.80;99.90;;;;;;5044358;28;20299;-68
2022/11/28 07:56:26;;;;;;;17.57;9.87;;;8.80;99.90;;;;;;5046144;28;20631;-68
2022/11/28 07:59:10;;;;;;;15.67;9.93;;;8.80;99.90;;;;;;5040833;28;20311;-70
2022/11/28 08:01:37;;;;;;;16.17;10.37;;;8.80;99.90;;;;;;5046245;28;20203;-68
2022/11/28 08:04:05;;;;;;;15.67;9.70;;;8.80;99.90;;;;;;5045362;28;20212;-68
2022/11/28 08:06:36;;;;;;;17.83;9.93;;;8.80;99.90;;;;;;5039410;28;20635;-69
2022/11/28 08:09:03;;;;;;;17.20;10.63;;;8.80;99.90;;;;;;5028779;28;20201;-67
2022/11/28 08:11:31;;;;;;;18.63;10.10;;;8.80;99.90;;;;;;5044912;28;20244;-69
2022/11/28 08:13:58;;;;;;;17.13;10.43;;;8.90;99.90;;;;;;5038597;28;20762;-71
2022/11/28 08:16:27;;;;;;;22.77;12.20;;;8.90;99.90;;;;;;5046842;28;20725;-67
2022/11/28 08:18:55;;;;;;;17.73;11.00;;;8.90;99.90;;;;;;5044271;28;20563;-69
2022/11/28 08:21:25;;;;;;;16.97;10.73;;;9.00;99.90;;;;;;5053523;28;20635;-67
2022/11/28 08:23:53;;;;;;;18.07;10.20;;;8.90;99.90;;;;;;5046308;28;20738;-69
2022/11/28 08:26:22;;;;;;;22.70;11.80;;;8.90;99.90;;;;;;5053301;28;20578;-68
2022/11/28 08:28:56;;;;;;;19.07;11.37;;;8.90;99.90;;;;;;5043943;28;20207;-69
2022/11/28 08:31:27;;;;;;;21.43;12.07;;;8.90;99.90;;;;;;5041472;28;20211;-68
2022/11/28 08:33:56;;;;;;;20.90;11.87;;;8.90;99.90;;;;;;5042452;28;20258;-68
2022/11/28 08:36:23;;;;;;;21.47;12.30;;;8.90;99.90;;;;;;5025923;28;20228;-68
2022/11/28 08:38:50;;;;;;;19.63;11.60;;;8.90;99.90;;;;;;5042778;28;20201;-68
2022/11/28 08:41:37;;;;;;;17.07;10.83;;;8.90;99.90;;;;;;5052490;28;20234;-67
2022/11/28 08:44:04;;;;;;;21.33;11.93;;;8.90;99.90;;;;;;5044515;28;20324;-68
2022/11/28 08:46:31;;;;;;;19.73;11.63;;;8.90;99.90;;;;;;5024125;28;20272;-68
2022/11/28 08:48:58;;;;;;;23.23;11.77;;;8.90;99.90;;;;;;5044326;28;20232;-69
2022/11/28 08:51:24;;;;;;;21.37;11.83;;;8.90;99.90;;;;;;5046620;28;20200;-68
2022/11/28 08:53:52;;;;;;;21.70;12.13;;;9.00;99.90;;;;;;5040733;28;20204;-68
2022/11/28 08:56:25;;;;;;;23.73;12.27;;;9.00;99.90;;;;;;5039883;28;20208;-68
2022/11/28 08:58:51;;;;;;;20.77;11.47;;;9.00;99.90;;;;;;5041880;28;20247;-68
2022/11/28 09:01:21;;;;;;;18.30;11.90;;;9.10;99.90;;;;;;5042829;28;20205;-68
2022/11/28 09:03:49;;;;;;;20.67;11.67;;;9.00;99.90;;;;;;5043717;28;20227;-69
2022/11/28 09:06:16;;;;;;;24.30;11.97;;;9.00;99.90;;;;;;5043432;28;20198;-68
2022/11/28 09:08:44;;;;;;;22.03;11.83;;;9.00;99.90;;;;;;5038669;28;20263;-69
2022/11/28 09:11:14;;;;;;;22.90;12.00;;;9.00;99.90;;;;;;5039448;28;20239;-68
2022/11/28 09:13:41;;;;;;;17.60;10.33;;;9.00;99.90;;;;;;5025176;28;20213;-68
2022/11/28 09:16:08;;;;;;;19.80;11.73;;;9.10;99.90;;;;;;5038473;28;20717;-68
2022/11/28 09:18:35;;;;;;;19.03;10.60;;;9.10;99.90;;;;;;5037388;28;20303;-68
2022/11/28 09:21:10;;;;;;;21.07;11.80;;;9.10;99.90;;;;;;5054319;28;20202;-68
2022/11/28 09:23:39;;;;;;;22.43;11.57;;;9.20;99.90;;;;;;5042611;28;20247;-69
2022/11/28 09:26:11;;;;;;;18.83;11.23;;;9.20;99.90;;;;;;5043902;28;20213;-68
2022/11/28 09:28:38;;;;;;;22.67;11.50;;;9.20;99.90;;;;;;5043809;28;20641;-69
2022/11/28 09:31:06;;;;;;;20.30;11.17;;;9.20;99.90;;;;;;5040941;28;20293;-67
2022/11/28 09:33:34;;;;;;;21.20;11.07;;;9.20;99.90;;;;;;5038258;28;20355;-68
2022/11/28 09:36:06;;;;;;;20.43;11.20;;;9.20;99.90;;;;;;5025830;28;20200;-67
2022/11/28 09:38:33;;;;;;;20.53;10.73;;;9.30;99.90;;;;;;5040396;28;20348;-68
2022/11/28 09:41:01;;;;;;;19.87;10.83;;;9.30;99.90;;;;;;5045186;28;20387;-68
2022/11/28 09:43:43;;;;;;;22.53;11.90;;;9.30;99.90;;;;;;5044737;28;20228;-66
2022/11/28 09:46:16;;;;;;;20.43;11.90;;;9.40;99.90;;;;;;5037655;28;20202;-67
2022/11/28 09:48:49;;;;;;;24.17;11.93;;;9.30;99.90;;;;;;5024549;28;20243;-67
2022/11/28 09:51:36;;;;;;;23.13;12.63;;;9.30;99.90;;;;;;5040843;28;20205;-67
2022/11/28 09:54:08;;;;;;;18.73;11.07;;;9.40;99.90;;;;;;5044248;28;20348;-67
2022/11/28 09:56:35;;;;;;;22.03;12.43;;;9.40;99.90;;;;;;5041583;28;20232;-68
2022/11/28 09:59:03;;;;;;;21.50;11.23;;;9.50;99.90;;;;;;5043767;28;20203;-68
2022/11/28 10:02:01;;;;;;;23.13;12.43;;;9.50;99.90;;;;;;5039320;28;20200;-67
2022/11/28 10:04:45;;;;;;;20.33;11.30;;;9.60;99.90;;;;;;5042759;28;20267;-67
2022/11/28 10:07:35;;;;;;;20.00;11.03;;;9.60;99.90;;;;;;5040537;28;20246;-68
2022/11/28 10:10:20;;;;;;;16.90;9.77;;;9.60;99.90;;;;;;5038051;28;20268;-68
2022/11/28 10:13:05;;;;;;;16.40;9.87;;;9.70;99.90;;;;;;5031735;28;20224;-67
2022/11/28 10:15:43;;;;;;;18.40;10.53;;;9.70;99.90;;;;;;5041096;28;20250;-67
2022/11/28 10:18:34;;;;;;;16.00;9.97;;;9.70;99.90;;;;;;5056257;28;20470;-68
2022/11/28 10:21:09;;;;;;;16.77;9.67;;;9.80;99.90;;;;;;5040614;28;20305;-68
2022/11/28 10:23:44;;;;;;;14.93;9.30;;;9.80;99.90;;;;;;5042445;28;20315;-69
2022/11/28 10:26:34;;;;;;;14.60;9.17;;;9.80;99.90;;;;;;5043228;28;20288;-69
2022/11/28 10:29:12;;;;;;;15.87;9.30;;;9.90;99.90;;;;;;5040959;28;20201;-68
2022/11/28 10:31:42;;;;;;;17.17;9.20;;;9.90;99.90;;;;;;5043525;28;20694;-68
2022/11/28 10:34:30;;;;;;;14.13;8.70;;;9.90;99.90;;;;;;5037796;28;20216;-68
2022/11/28 10:37:20;;;;;;;14.07;8.67;;;9.90;99.90;;;;;;5042625;28;20248;-67
2022/11/28 10:39:47;;;;;;;13.30;7.93;;;9.90;99.90;;;;;;5028481;28;20202;-67
2022/11/28 10:42:24;;;;;;;13.43;8.00;;;9.80;99.90;;;;;;5043649;28;20218;-68
2022/11/28 10:45:03;;;;;;;12.00;7.33;;;9.90;99.90;;;;;;5041506;28;20221;-68
2022/11/28 10:47:39;;;;;;;13.23;7.80;;;10.00;99.90;;;;;;5038524;28;20287;-68
2022/11/28 10:50:20;;;;;;;11.60;7.90;;;10.00;99.90;;;;;;5042743;28;20726;-68
2022/11/28 10:52:57;;;;;;;11.93;7.87;;;10.00;99.90;;;;;;5044221;28;20669;-68
2022/11/28 10:55:57;;;;;;;10.67;7.53;;;10.00;99.90;;;;;;5055508;28;20292;-67
2022/11/28 10:58:36;;;;;;;12.33;7.63;;;10.00;99.90;;;;;;5043027;28;20308;-67
2022/11/28 11:01:03;;;;;;;9.67;7.30;;;10.00;99.90;;;;;;5039517;28;20205;-67
2022/11/28 11:03:34;;;;;;;11.33;7.90;;;10.00;99.90;;;;;;5040868;28;20615;-67
2022/11/28 11:06:01;;;;;;;11.50;7.63;;;10.00;99.90;;;;;;5042869;28;20239;-67
2022/11/28 11:08:34;;;;;;;13.53;7.73;;;10.00;99.90;;;;;;5030762;28;20232;-67
2022/11/28 11:11:18;;;;;;;12.90;8.07;;;10.00;99.90;;;;;;5044782;28;20611;-67
2022/11/28 11:14:04;;;;;;;10.80;7.70;;;10.10;99.90;;;;;;5044674;28;20524;-67
2022/11/28 11:16:50;;;;;;;13.83;8.40;;;10.10;99.90;;;;;;5046298;28;20220;-67
2022/11/28 11:19:33;;;;;;;11.77;8.03;;;10.10;99.90;;;;;;5050819;28;20203;-67
2022/11/28 11:22:11;;;;;;;12.80;7.53;;;10.10;99.90;;;;;;5046958;28;20201;-67
2022/11/28 11:24:38;;;;;;;13.87;7.50;;;10.10;99.90;;;;;;5045280;28;20583;-67
2022/11/28 11:27:15;;;;;;;13.53;8.40;;;10.20;99.90;;;;;;5043135;28;20297;-66
2022/11/28 11:29:42;;;;;;;15.67;9.13;;;10.20;99.90;;;;;;5044187;28;20204;-67
2022/11/28 11:32:26;;;;;;;15.47;8.50;;;10.20;99.90;;;;;;5043738;28;20206;-68
2022/11/28 11:34:55;;;;;;;16.63;9.33;;;10.20;99.90;;;;;;5044670;28;20257;-69
2022/11/28 11:37:28;;;;;;;17.73;9.57;;;10.20;99.90;;;;;;5045996;28;20269;-68
2022/11/28 11:39:54;;;;;;;18.57;9.57;;;10.20;99.90;;;;;;5041752;28;20224;-68
2022/11/28 11:42:24;;;;;;;17.73;9.63;;;10.20;99.90;;;;;;5048510;28;20217;-67
2022/11/28 11:44:51;;;;;;;20.03;10.50;;;10.20;99.90;;;;;;5045327;28;20230;-68
2022/11/28 11:47:18;;;;;;;19.53;10.77;;;10.10;99.90;;;;;;5044498;28;20204;-67
2022/11/28 11:49:48;;;;;;;21.90;10.70;;;10.10;99.90;;;;;;5047509;28;20198;-69
2022/11/28 11:52:24;;;;;;;21.17;10.40;;;10.10;99.90;;;;;;5045792;28;20200;-68
2022/11/28 11:54:57;;;;;;;19.80;11.03;;;10.20;99.90;;;;;;5044043;28;20201;-68
2022/11/28 11:57:25;;;;;;;22.43;11.20;;;10.20;99.90;;;;;;5043358;28;20749;-67
2022/11/28 12:00:18;;;;;;;19.87;11.40;;;10.20;99.90;;;;;;5041807;28;20193;-67
2022/11/28 12:02:54;;;;;;;23.80;12.47;;;10.20;99.90;;;;;;5045828;28;20205;-68
2022/11/28 12:05:33;;;;;;;26.80;12.97;;;10.20;99.90;;;;;;5028877;28;20228;-68
2022/11/28 12:08:33;;;;;;;25.93;12.27;;;10.30;99.90;;;;;;5029827;28;20205;-68
2022/11/28 12:11:22;;;;;;;27.17;12.93;;;10.20;99.90;;;;;;5039667;28;20209;-67
2022/11/28 12:13:50;;;;;;;26.67;13.20;;;10.20;99.90;;;;;;5043232;28;20204;-68
2022/11/28 12:16:36;;;;;;;25.03;12.63;;;10.10;99.90;;;;;;5025985;28;20279;-68
2022/11/28 12:19:27;;;;;;;30.80;13.60;;;10.20;99.90;;;;;;5045677;28;20205;-68
2022/11/28 12:22:01;;;;;;;25.73;13.73;;;10.20;99.90;;;;;;5044267;28;20201;-68
2022/11/28 12:24:55;;;;;;;34.30;14.10;;;10.20;99.90;;;;;;5044541;28;20341;-68
2022/11/28 12:27:48;;;;;;;35.13;14.70;;;10.20;99.90;;;;;;5036490;28;20215;-68
2022/11/28 12:30:53;;;;;;;31.73;14.50;;;10.20;99.90;;;;;;5042489;28;20554;-68
2022/11/28 12:33:35;;;;;;;36.53;15.40;;;10.20;99.90;;;;;;5041477;28;20201;-68
2022/11/28 12:36:17;;;;;;;39.03;16.37;;;10.20;99.90;;;;;;5042474;28;20209;-67
2022/11/28 12:39:16;;;;;;;37.07;16.53;;;10.10;99.90;;;;;;5042327;28;20244;-68
2022/11/28 12:42:04;;;;;;;37.93;16.57;;;10.10;99.90;;;;;;5021965;28;20304;-68
2022/11/28 12:45:01;;;;;;;37.30;17.00;;;10.10;99.90;;;;;;5042167;28;20231;-67
2022/11/28 12:48:00;;;;;;;36.90;16.77;;;10.10;99.90;;;;;;5028556;28;20287;-67
2022/11/28 12:50:27;;;;;;;41.20;16.50;;;10.10;99.90;;;;;;5052464;28;20560;-68
2022/11/28 12:53:25;;;;;;;35.53;17.17;;;10.10;99.90;;;;;;5053259;28;20225;-69
2022/11/28 12:56:11;;;;;;;41.90;17.60;;;10.10;99.90;;;;;;5042742;28;20311;-67
2022/11/28 12:58:44;;;;;;;42.93;18.50;;;10.10;99.90;;;;;;5038515;28;20219;-68
2022/11/28 13:01:49;;;;;;;41.87;16.57;;;10.00;99.90;;;;;;5042150;28;20225;-67
2022/11/28 13:04:41;;;;;;;41.73;16.93;;;10.10;99.90;;;;;;5043681;28;20262;-67
2022/11/28 13:07:40;;;;;;;42.10;18.53;;;10.00;99.90;;;;;;5040684;28;20657;-70
2022/11/28 13:10:27;;;;;;;38.33;16.23;;;10.10;99.90;;;;;;5046185;28;20270;-69
2022/11/28 13:13:03;;;;;;;38.27;17.33;;;10.10;99.90;;;;;;5041573;28;20230;-67